CheckWX is a tool to help pilots better visualize weather data.  It is not intended as a substitute for an official pre-flight weather briefing.

12:58:32 UTC

KSJC TAF
Norman Y Mineta San Jose International Airport
San Jose, California, USA
KSJC 221128Z 2212/2312 14004KT P6SM SCT035 OVC150 FM221500 14010G16KT P6SM -SHRA BKN035 OVC060 FM221800 15014G21KT P6SM VCSH BKN030 BKN060 FM230100 18015G22KT P6SM -RA BKN025 OVC040 FM230600 18010KT 6SM -RA BKN020 OVC035

Mar-22@
12:00 UTC

Mar-22 @ 12:00 UTC

Mar-22@
15:00 UTC

Mar-22 @ 15:00 UTC

KSJC 221128Z 2212/2312 14004KT P6SM SCT035 OVC150
Wind
  • 140° at 4 KTS
Cloud Levels
  • Scattered at 3,500' AGL
  • Overcast at 15,000' AGL

Mar-22@
15:00 UTC

Mar-22 @ 15:00 UTC

Mar-22@
18:00 UTC

Mar-22 @ 18:00 UTC

FM221500 14010G16KT P6SM -SHRA BKN035 OVC060

From

From Standard forecast or significant change

Wind
  • 140° at 10 KTS
  • {Gusting to 16 KTS
Conditions
Light Rain
Cloud Levels
  • Broken at 3,500' AGL
  • Overcast at 6,000' AGL

Mar-22@
18:00 UTC

Mar-22 @ 18:00 UTC

Mar-23@
01:00 UTC

Mar-23 @ 01:00 UTC

FM221800 15014G21KT P6SM VCSH BKN030 BKN060

From

From Standard forecast or significant change

Wind
  • 150° at 14 KTS
  • {Gusting to 21 KTS
Cloud Levels
  • Broken at 3,000' AGL
  • Broken at 6,000' AGL

Mar-23@
01:00 UTC

Mar-23 @ 01:00 UTC

Mar-23@
06:00 UTC

Mar-23 @ 06:00 UTC

FM230100 18015G22KT P6SM -RA BKN025 OVC040

From

From Standard forecast or significant change

Wind
  • 180° at 15 KTS
  • {Gusting to 22 KTS
Conditions
Light Rain
Cloud Levels
  • Broken at 2,500' AGL
  • Overcast at 4,000' AGL

Mar-23@
06:00 UTC

Mar-23 @ 06:00 UTC

Mar-23@
12:00 UTC

Mar-23 @ 12:00 UTC

FM230600 18010KT 6SM -RA BKN020 OVC035

From

From Standard forecast or significant change

Wind
  • 180° at 10 KTS
Conditions
Light Rain
Cloud Levels
  • Broken at 2,000' AGL
  • Overcast at 3,500' AGL